首页
METAR-TAF:

METAR-TAF

机场 :

哈爾科夫國際機場

哈爾科夫, 乌克兰

纬度: 49-58N, 经度: 036-08E, 海拔: 154米

当前天气观测

该预报发布于14分钟前的17:30 UTC
风速10节,风向东转东北
温度 20°C
湿度 64%
气压 1008 hPa
能见度10公里或以上
少量云 , 积雨云.
附近有雷暴

METAR: UKHH 241730Z 07005MPS 9999 VCTS FEW///CB 20/13 Q1008 R07/0///81 NOSIG

时间: 20:44 (17:44 UTC)

预报

该预报发布于34分钟前的17:10 UTC
预报有效从24日的 18点(UTC)到 25日的 18点(UTC)
风速6节,风向北转东北
能見度: 6000
多云层高于2000英尺
散云层高于3000英尺, 积雨云.
短暂存在
从 24日的 18点(UTC)到 24日的 21点(UTC)
风速17节,风向西转西北,有时为31节阵风
能見度: 0600
多云层高于300英尺
多云层高于2000英尺, 积雨云.
雷暴, 大雨, 冰雹, 飑
短暂存在
从 24日的 21点(UTC)到 25日的 09点(UTC)
风速12节,风向西北,有时为23节阵风
能見度: 1000
多云层高于400英尺
多云层高于2000英尺, 积雨云.
雷暴, 雨, 轻雾
短暂存在
从 25日的 09点(UTC)到 25日的 18点(UTC)
风速17节,风向南转西南,有时为31节阵风
能見度: 0800
多云层高于300英尺
多云层高于2000英尺, 积雨云.
雷暴, 大雨, 冰雹, 飑

TAF: UKHH 241710Z 2418/2518 03003MPS 6000 BKN020 SCT030CB TEMPO 2418/2421 30009G16MPS 0600 +TSRAGR SQ BKN003 BKN020CB TEMPO 2421/2509 32006G12MPS 1000 TSRA BR BKN004 BKN020CB TEMPO 2509/2518 20009G16MPS 0800 +TSRAGR SQ BKN003 BKN020CB

超过4000个机场的气象观测和天气预报(METAR&TAF报告)。

可查询的气象台以黄色和红色小点在地图上表示。

将鼠标移到小点上方,可查看气象台名称。

然后点击查看天气观测和预报。

如需切换地图:点击带黑十字的绿色按钮放大地图;点击带横线的绿色按钮缩小地图;或者点击绿色箭头查看邻近地区的地图。


METAR-TAF: